sensor_id;sensor_type;location;lat;lon;timestamp;pressure;altitude;pressure_sealevel;temperature;humidity
41624;BME280;27319;50.306;18.926;2023-10-09T00:01:46;99006.78;;;5.40;83.32
41624;BME280;27319;50.306;18.926;2023-10-09T00:05:47;99016.41;;;5.30;83.81
41624;BME280;27319;50.306;18.926;2023-10-09T00:09:47;99015.97;;;5.02;85.00
41624;BME280;27319;50.306;18.926;2023-10-09T00:13:28;98993.47;;;4.95;85.35
41624;BME280;27319;50.306;18.926;2023-10-09T00:16:52;98990.63;;;4.85;85.33
41624;BME280;27319;50.306;18.926;2023-10-09T00:20:36;98972.03;;;4.96;84.73
41624;BME280;27319;50.306;18.926;2023-10-09T00:24:37;98968.88;;;4.80;85.93
41624;BME280;27319;50.306;18.926;2023-10-09T00:28:53;98955.63;;;5.02;84.58
41624;BME280;27319;50.306;18.926;2023-10-09T00:33:02;98932.66;;;5.12;84.83
41624;BME280;27319;50.306;18.926;2023-10-09T00:37:03;98914.47;;;4.84;86.83
41624;BME280;27319;50.306;18.926;2023-10-09T00:41:03;98900.22;;;4.96;85.32
41624;BME280;27319;50.306;18.926;2023-10-09T00:45:04;98906.00;;;4.90;85.30
41624;BME280;27319;50.306;18.926;2023-10-09T00:48:47;98891.06;;;5.00;84.51
41624;BME280;27319;50.306;18.926;2023-10-09T00:52:08;98873.13;;;4.80;87.10
41624;BME280;27319;50.306;18.926;2023-10-09T00:56:09;98876.97;;;4.76;86.38
41624;BME280;27319;50.306;18.926;2023-10-09T01:03:05;98907.16;;;4.64;88.38
41624;BME280;27319;50.306;18.926;2023-10-09T01:06:20;98906.94;;;4.78;87.41
41624;BME280;27319;50.306;18.926;2023-10-09T01:09:28;98898.63;;;4.83;86.81
41624;BME280;27319;50.306;18.926;2023-10-09T01:12:29;98899.47;;;4.83;86.97
41624;BME280;27319;50.306;18.926;2023-10-09T01:15:30;98893.16;;;4.73;86.67
41624;BME280;27319;50.306;18.926;2023-10-09T01:18:45;98889.50;;;4.63;87.98
41624;BME280;27319;50.306;18.926;2023-10-09T01:21:53;98889.97;;;4.57;88.86
41624;BME280;27319;50.306;18.926;2023-10-09T01:24:54;98893.63;;;4.67;87.94
41624;BME280;27319;50.306;18.926;2023-10-09T01:27:56;98895.28;;;4.57;88.80
41624;BME280;27319;50.306;18.926;2023-10-09T01:30:57;98907.94;;;4.88;86.34
41624;BME280;27319;50.306;18.926;2023-10-09T01:33:59;98895.50;;;5.00;87.34
41624;BME280;27319;50.306;18.926;2023-10-09T01:37:00;98906.41;;;4.97;90.22
41624;BME280;27319;50.306;18.926;2023-10-09T01:40:06;98901.00;;;5.09;87.42
41624;BME280;27319;50.306;18.926;2023-10-09T01:43:25;98907.47;;;4.94;88.30
41624;BME280;27319;50.306;18.926;2023-10-09T01:46:27;98886.09;;;4.27;94.29
41624;BME280;27319;50.306;18.926;2023-10-09T01:49:28;98902.16;;;4.60;89.16
41624;BME280;27319;50.306;18.926;2023-10-09T01:52:32;98905.00;;;4.69;89.37
41624;BME280;27319;50.306;18.926;2023-10-09T01:55:56;98890.16;;;4.78;88.93
41624;BME280;27319;50.306;18.926;2023-10-09T02:00:00;98883.75;;;4.80;90.65
41624;BME280;27319;50.306;18.926;2023-10-09T02:04:01;98861.63;;;4.45;94.92
41624;BME280;27319;50.306;18.926;2023-10-09T02:08:01;98865.63;;;4.85;88.25
41624;BME280;27319;50.306;18.926;2023-10-09T02:12:02;98829.63;;;4.92;90.44
41624;BME280;27319;50.306;18.926;2023-10-09T02:16:03;98848.50;;;5.11;88.63
41624;BME280;27319;50.306;18.926;2023-10-09T02:20:09;98837.25;;;4.97;92.62
41624;BME280;27319;50.306;18.926;2023-10-09T02:24:10;98847.28;;;5.04;90.43
41624;BME280;27319;50.306;18.926;2023-10-09T02:28:09;98845.13;;;4.98;92.04
41624;BME280;27319;50.306;18.926;2023-10-09T02:32:09;98859.72;;;5.04;92.93
41624;BME280;27319;50.306;18.926;2023-10-09T02:36:10;98845.25;;;5.08;90.44
41624;BME280;27319;50.306;18.926;2023-10-09T02:40:11;98830.09;;;5.08;92.02
41624;BME280;27319;50.306;18.926;2023-10-09T02:44:12;98850.22;;;5.23;90.18
41624;BME280;27319;50.306;18.926;2023-10-09T02:48:12;98862.53;;;5.24;93.78
41624;BME280;27319;50.306;18.926;2023-10-09T02:52:13;98848.72;;;4.97;96.17
41624;BME280;27319;50.306;18.926;2023-10-09T02:56:14;98850.66;;;4.95;95.28
41624;BME280;27319;50.306;18.926;2023-10-09T03:00:23;98840.75;;;5.08;96.39
41624;BME280;27319;50.306;18.926;2023-10-09T03:04:24;98818.50;;;4.98;97.21
41624;BME280;27319;50.306;18.926;2023-10-09T03:08:25;98803.38;;;4.99;95.72
41624;BME280;27319;50.306;18.926;2023-10-09T03:12:26;98812.72;;;5.04;95.66
41624;BME280;27319;50.306;18.926;2023-10-09T03:16:26;98802.69;;;5.08;96.33
41624;BME280;27319;50.306;18.926;2023-10-09T03:20:27;98799.25;;;5.06;98.01
41624;BME280;27319;50.306;18.926;2023-10-09T03:24:28;98792.38;;;5.14;96.08
41624;BME280;27319;50.306;18.926;2023-10-09T03:28:29;98788.50;;;5.18;98.34
41624;BME280;27319;50.306;18.926;2023-10-09T03:32:30;98782.38;;;5.18;98.81
41624;BME280;27319;50.306;18.926;2023-10-09T03:36:31;98769.78;;;5.20;97.55
41624;BME280;27319;50.306;18.926;2023-10-09T03:40:31;98766.84;;;5.34;98.21
41624;BME280;27319;50.306;18.926;2023-10-09T03:44:35;98768.31;;;5.27;99.94
41624;BME280;27319;50.306;18.926;2023-10-09T03:48:35;98772.25;;;5.54;96.18
41624;BME280;27319;50.306;18.926;2023-10-09T03:52:36;98766.81;;;5.56;97.81
41624;BME280;27319;50.306;18.926;2023-10-09T03:56:37;98763.53;;;5.63;95.68
41624;BME280;27319;50.306;18.926;2023-10-09T04:00:38;98749.00;;;5.67;95.13
41624;BME280;27319;50.306;18.926;2023-10-09T04:04:38;98729.31;;;5.59;97.71
41624;BME280;27319;50.306;18.926;2023-10-09T04:08:39;98734.25;;;5.63;95.00
41624;BME280;27319;50.306;18.926;2023-10-09T04:12:20;98756.00;;;5.68;97.44
41624;BME280;27319;50.306;18.926;2023-10-09T04:15:21;98750.59;;;5.59;99.41
41624;BME280;27319;50.306;18.926;2023-10-09T04:18:23;98751.41;;;5.70;97.44
41624;BME280;27319;50.306;18.926;2023-10-09T04:21:33;98744.88;;;5.74;96.68
41624;BME280;27319;50.306;18.926;2023-10-09T04:24:37;98736.16;;;5.72;95.52
41624;BME280;27319;50.306;18.926;2023-10-09T04:27:45;98728.88;;;5.74;97.46
41624;BME280;27319;50.306;18.926;2023-10-09T04:30:48;98719.22;;;5.73;98.80
41624;BME280;27319;50.306;18.926;2023-10-09T04:33:56;98705.63;;;5.76;98.25
41624;BME280;27319;50.306;18.926;2023-10-09T04:37:17;98698.84;;;5.83;94.04
41624;BME280;27319;50.306;18.926;2023-10-09T04:40:57;98696.91;;;5.85;97.15
41624;BME280;27319;50.306;18.926;2023-10-09T04:45:00;98677.81;;;5.80;96.94
41624;BME280;27319;50.306;18.926;2023-10-09T04:49:01;98678.00;;;5.77;98.06
41624;BME280;27319;50.306;18.926;2023-10-09T04:53:07;98678.16;;;5.87;94.15
41624;BME280;27319;50.306;18.926;2023-10-09T04:57:08;98667.59;;;5.85;97.92
41624;BME280;27319;50.306;18.926;2023-10-09T05:01:03;98665.41;;;5.90;97.09
41624;BME280;27319;50.306;18.926;2023-10-09T05:04:05;98663.41;;;6.03;95.74
41624;BME280;27319;50.306;18.926;2023-10-09T05:07:26;98677.53;;;6.04;96.77
41624;BME280;27319;50.306;18.926;2023-10-09T05:10:51;98649.50;;;6.00;97.33
41624;BME280;27319;50.306;18.926;2023-10-09T05:14:19;98643.00;;;6.13;96.15
41624;BME280;27319;50.306;18.926;2023-10-09T05:18:19;98644.84;;;6.22;95.58
41624;BME280;27319;50.306;18.926;2023-10-09T05:22:20;98629.59;;;6.24;94.43
41624;BME280;27319;50.306;18.926;2023-10-09T05:26:20;98633.38;;;6.22;95.25
41624;BME280;27319;50.306;18.926;2023-10-09T05:30:07;98620.88;;;6.22;98.75
41624;BME280;27319;50.306;18.926;2023-10-09T05:34:08;98628.88;;;6.22;95.87
41624;BME280;27319;50.306;18.926;2023-10-09T05:38:08;98610.94;;;6.24;98.65
41624;BME280;27319;50.306;18.926;2023-10-09T05:41:34;98612.88;;;6.22;99.90
41624;BME280;27319;50.306;18.926;2023-10-09T05:44:55;98604.19;;;6.20;100.00
41624;BME280;27319;50.306;18.926;2023-10-09T05:48:16;98609.44;;;6.31;98.40
41624;BME280;27319;50.306;18.926;2023-10-09T05:51:17;98625.88;;;6.36;96.95
41624;BME280;27319;50.306;18.926;2023-10-09T05:54:37;98630.97;;;6.49;95.75
41624;BME280;27319;50.306;18.926;2023-10-09T05:58:10;98649.38;;;6.52;94.44
41624;BME280;27319;50.306;18.926;2023-10-09T06:01:30;98650.03;;;6.44;97.11
41624;BME280;27319;50.306;18.926;2023-10-09T06:04:49;98646.13;;;6.48;96.84
41624;BME280;27319;50.306;18.926;2023-10-09T06:07:55;98655.13;;;6.47;93.91
41624;BME280;27319;50.306;18.926;2023-10-09T06:11:09;98658.47;;;6.49;95.96
41624;BME280;27319;50.306;18.926;2023-10-09T06:14:29;98658.00;;;6.65;94.57
41624;BME280;27319;50.306;18.926;2023-10-09T06:17:29;98666.31;;;6.71;93.20
41624;BME280;27319;50.306;18.926;2023-10-09T06:20:44;98664.03;;;6.67;96.11
41624;BME280;27319;50.306;18.926;2023-10-09T06:24:08;98670.59;;;6.53;97.18
41624;BME280;27319;50.306;18.926;2023-10-09T06:27:15;98671.00;;;6.58;96.73
41624;BME280;27319;50.306;18.926;2023-10-09T06:30:25;98677.22;;;6.68;93.88
41624;BME280;27319;50.306;18.926;2023-10-09T06:33:27;98679.91;;;6.68;96.25
41624;BME280;27319;50.306;18.926;2023-10-09T06:36:51;98677.84;;;6.51;97.62
41624;BME280;27319;50.306;18.926;2023-10-09T06:39:56;98687.09;;;6.47;98.54
41624;BME280;27319;50.306;18.926;2023-10-09T06:42:57;98684.28;;;6.49;98.41
41624;BME280;27319;50.306;18.926;2023-10-09T06:45:58;98672.22;;;6.45;97.58
41624;BME280;27319;50.306;18.926;2023-10-09T06:49:18;98668.88;;;6.52;97.78
41624;BME280;27319;50.306;18.926;2023-10-09T06:52:34;98645.88;;;6.61;95.66
41624;BME280;27319;50.306;18.926;2023-10-09T06:55:54;98653.22;;;6.68;95.23
41624;BME280;27319;50.306;18.926;2023-10-09T06:59:08;98663.00;;;6.58;99.15
41624;BME280;27319;50.306;18.926;2023-10-09T07:02:55;98658.88;;;6.45;100.00
41624;BME280;27319;50.306;18.926;2023-10-09T07:06:56;98651.47;;;6.48;99.40
41624;BME280;27319;50.306;18.926;2023-10-09T07:10:57;98647.97;;;6.57;100.00
41624;BME280;27319;50.306;18.926;2023-10-09T07:15:03;98646.13;;;6.48;100.00
41624;BME280;27319;50.306;18.926;2023-10-09T07:19:02;98642.81;;;6.56;98.03
41624;BME280;27319;50.306;18.926;2023-10-09T07:23:06;98632.13;;;6.56;100.00
41624;BME280;27319;50.306;18.926;2023-10-09T07:27:07;98618.50;;;6.49;100.00
41624;BME280;27319;50.306;18.926;2023-10-09T07:31:26;98610.94;;;6.54;100.00
41624;BME280;27319;50.306;18.926;2023-10-09T07:35:26;98619.94;;;6.63;100.00
41624;BME280;27319;50.306;18.926;2023-10-09T07:39:27;98615.63;;;6.71;100.00
41624;BME280;27319;50.306;18.926;2023-10-09T07:43:28;98620.25;;;6.69;100.00
41624;BME280;27319;50.306;18.926;2023-10-09T07:47:28;98619.50;;;6.58;100.00
41624;BME280;27319;50.306;18.926;2023-10-09T07:51:38;98625.88;;;6.76;100.00
41624;BME280;27319;50.306;18.926;2023-10-09T07:55:39;98630.66;;;6.72;100.00
41624;BME280;27319;50.306;18.926;2023-10-09T07:59:39;98616.78;;;6.78;100.00
41624;BME280;27319;50.306;18.926;2023-10-09T08:03:43;98595.59;;;6.86;100.00
41624;BME280;27319;50.306;18.926;2023-10-09T08:07:46;98584.22;;;6.84;100.00
41624;BME280;27319;50.306;18.926;2023-10-09T08:11:59;98575.06;;;6.77;100.00
41624;BME280;27319;50.306;18.926;2023-10-09T08:15:59;98559.94;;;6.87;100.00
41624;BME280;27319;50.306;18.926;2023-10-09T08:20:02;98543.53;;;7.01;100.00
41624;BME280;27319;50.306;18.926;2023-10-09T08:24:03;98524.56;;;7.23;100.00
41624;BME280;27319;50.306;18.926;2023-10-09T08:28:19;98506.03;;;7.12;100.00
41624;BME280;27319;50.306;18.926;2023-10-09T08:32:25;98496.84;;;7.62;100.00
41624;BME280;27319;50.306;18.926;2023-10-09T08:36:26;98488.97;;;7.61;100.00
41624;BME280;27319;50.306;18.926;2023-10-09T08:44:13;98457.06;;;7.59;100.00
41624;BME280;27319;50.306;18.926;2023-10-09T08:48:02;98451.63;;;7.32;100.00
41624;BME280;27319;50.306;18.926;2023-10-09T08:52:03;98456.69;;;7.35;100.00
41624;BME280;27319;50.306;18.926;2023-10-09T08:56:04;98448.72;;;6.97;100.00
41624;BME280;27319;50.306;18.926;2023-10-09T09:00:05;98459.09;;;7.19;100.00
41624;BME280;27319;50.306;18.926;2023-10-09T09:04:05;98456.97;;;7.23;100.00
41624;BME280;27319;50.306;18.926;2023-10-09T09:08:19;98450.38;;;7.27;100.00
41624;BME280;27319;50.306;18.926;2023-10-09T09:12:07;98458.69;;;7.05;100.00
41624;BME280;27319;50.306;18.926;2023-10-09T09:16:14;98442.66;;;7.24;100.00
41624;BME280;27319;50.306;18.926;2023-10-09T09:20:23;98435.63;;;7.23;100.00
41624;BME280;27319;50.306;18.926;2023-10-09T09:24:20;98426.78;;;7.32;100.00
41624;BME280;27319;50.306;18.926;2023-10-09T09:28:21;98423.81;;;7.25;100.00
41624;BME280;27319;50.306;18.926;2023-10-09T09:32:28;98421.56;;;7.30;100.00
41624;BME280;27319;50.306;18.926;2023-10-09T09:36:28;98417.66;;;7.15;100.00
41624;BME280;27319;50.306;18.926;2023-10-09T09:40:30;98414.00;;;7.26;100.00
41624;BME280;27319;50.306;18.926;2023-10-09T09:44:30;98412.56;;;7.31;100.00
41624;BME280;27319;50.306;18.926;2023-10-09T09:48:31;98416.66;;;7.26;100.00
41624;BME280;27319;50.306;18.926;2023-10-09T09:52:31;98408.09;;;7.32;100.00
41624;BME280;27319;50.306;18.926;2023-10-09T09:56:36;98398.13;;;7.24;100.00
41624;BME280;27319;50.306;18.926;2023-10-09T10:00:36;98405.81;;;7.27;100.00
41624;BME280;27319;50.306;18.926;2023-10-09T10:04:37;98416.91;;;7.32;100.00
41624;BME280;27319;50.306;18.926;2023-10-09T10:08:37;98414.41;;;7.31;100.00
41624;BME280;27319;50.306;18.926;2023-10-09T10:12:56;98429.47;;;7.22;100.00
41624;BME280;27319;50.306;18.926;2023-10-09T10:16:59;98415.66;;;7.36;100.00
41624;BME280;27319;50.306;18.926;2023-10-09T10:21:09;98417.50;;;7.26;100.00
41624;BME280;27319;50.306;18.926;2023-10-09T10:28:25;98400.50;;;7.18;100.00
41624;BME280;27319;50.306;18.926;2023-10-09T10:32:26;98393.34;;;7.18;100.00
41624;BME280;27319;50.306;18.926;2023-10-09T10:36:26;98373.84;;;7.08;100.00
41624;BME280;27319;50.306;18.926;2023-10-09T10:40:27;98363.16;;;7.08;100.00
41624;BME280;27319;50.306;18.926;2023-10-09T10:44:28;98369.91;;;7.12;100.00
41624;BME280;27319;50.306;18.926;2023-10-09T10:48:32;98366.44;;;6.83;100.00
41624;BME280;27319;50.306;18.926;2023-10-09T10:52:29;98352.75;;;7.24;100.00
41624;BME280;27319;50.306;18.926;2023-10-09T10:56:29;98331.66;;;7.21;100.00
41624;BME280;27319;50.306;18.926;2023-10-09T11:00:31;98325.63;;;7.19;100.00
41624;BME280;27319;50.306;18.926;2023-10-09T11:04:17;98319.56;;;7.27;100.00
41624;BME280;27319;50.306;18.926;2023-10-09T11:08:23;98308.09;;;7.17;100.00
41624;BME280;27319;50.306;18.926;2023-10-09T11:12:26;98299.84;;;7.10;100.00
41624;BME280;27319;50.306;18.926;2023-10-09T11:16:25;98283.94;;;7.18;100.00
41624;BME280;27319;50.306;18.926;2023-10-09T11:20:29;98281.44;;;7.07;100.00
41624;BME280;27319;50.306;18.926;2023-10-09T11:24:26;98285.91;;;7.07;100.00
41624;BME280;27319;50.306;18.926;2023-10-09T11:28:21;98300.56;;;7.03;100.00
41624;BME280;27319;50.306;18.926;2023-10-09T11:32:23;98294.78;;;7.07;100.00
41624;BME280;27319;50.306;18.926;2023-10-09T11:36:24;98296.59;;;7.16;100.00
41624;BME280;27319;50.306;18.926;2023-10-09T11:40:29;98289.84;;;7.12;100.00
41624;BME280;27319;50.306;18.926;2023-10-09T11:44:41;98288.16;;;7.11;100.00
41624;BME280;27319;50.306;18.926;2023-10-09T11:48:41;98281.16;;;7.10;100.00
41624;BME280;27319;50.306;18.926;2023-10-09T11:52:55;98272.88;;;7.04;100.00
41624;BME280;27319;50.306;18.926;2023-10-09T11:56:44;98268.22;;;7.06;100.00
41624;BME280;27319;50.306;18.926;2023-10-09T12:00:44;98280.19;;;7.02;100.00
41624;BME280;27319;50.306;18.926;2023-10-09T12:04:45;98271.16;;;7.12;100.00
41624;BME280;27319;50.306;18.926;2023-10-09T12:08:46;98265.69;;;7.04;100.00
41624;BME280;27319;50.306;18.926;2023-10-09T12:12:29;98265.78;;;7.22;100.00
41624;BME280;27319;50.306;18.926;2023-10-09T12:15:31;98270.16;;;7.13;100.00
41624;BME280;27319;50.306;18.926;2023-10-09T12:18:38;98266.22;;;7.17;100.00
41624;BME280;27319;50.306;18.926;2023-10-09T12:21:39;98272.69;;;7.15;100.00
41624;BME280;27319;50.306;18.926;2023-10-09T12:24:43;98270.69;;;7.26;100.00
41624;BME280;27319;50.306;18.926;2023-10-09T12:27:44;98268.91;;;7.17;100.00
41624;BME280;27319;50.306;18.926;2023-10-09T12:31:05;98267.28;;;7.34;100.00
41624;BME280;27319;50.306;18.926;2023-10-09T12:35:06;98255.19;;;7.39;100.00
41624;BME280;27319;50.306;18.926;2023-10-09T12:39:06;98256.16;;;7.38;100.00
41624;BME280;27319;50.306;18.926;2023-10-09T12:43:07;98266.09;;;7.46;100.00
41624;BME280;27319;50.306;18.926;2023-10-09T12:47:08;98268.53;;;7.39;100.00
41624;BME280;27319;50.306;18.926;2023-10-09T12:51:08;98262.28;;;7.48;100.00
41624;BME280;27319;50.306;18.926;2023-10-09T12:55:12;98263.47;;;7.36;100.00
41624;BME280;27319;50.306;18.926;2023-10-09T12:59:13;98259.34;;;7.42;100.00
41624;BME280;27319;50.306;18.926;2023-10-09T13:03:14;98248.53;;;7.43;100.00
41624;BME280;27319;50.306;18.926;2023-10-09T13:07:14;98251.00;;;7.54;100.00
41624;BME280;27319;50.306;18.926;2023-10-09T13:11:15;98245.44;;;7.48;100.00
41624;BME280;27319;50.306;18.926;2023-10-09T13:15:16;98230.91;;;7.50;100.00
41624;BME280;27319;50.306;18.926;2023-10-09T13:18:57;98226.28;;;7.52;100.00
41624;BME280;27319;50.306;18.926;2023-10-09T13:22:00;98211.56;;;7.48;100.00
41624;BME280;27319;50.306;18.926;2023-10-09T13:25:05;98214.34;;;7.47;100.00
41624;BME280;27319;50.306;18.926;2023-10-09T13:28:06;98215.41;;;7.36;100.00
41624;BME280;27319;50.306;18.926;2023-10-09T13:31:07;98215.50;;;7.44;100.00
41624;BME280;27319;50.306;18.926;2023-10-09T13:34:12;98209.28;;;7.53;100.00
41624;BME280;27319;50.306;18.926;2023-10-09T13:37:15;98201.94;;;7.55;100.00
41624;BME280;27319;50.306;18.926;2023-10-09T13:40:22;98198.72;;;7.52;100.00
41624;BME280;27319;50.306;18.926;2023-10-09T13:43:29;98206.53;;;7.45;100.00
41624;BME280;27319;50.306;18.926;2023-10-09T13:46:30;98203.16;;;7.43;100.00
41624;BME280;27319;50.306;18.926;2023-10-09T13:49:31;98212.94;;;7.52;100.00
41624;BME280;27319;50.306;18.926;2023-10-09T13:52:33;98217.28;;;7.53;100.00
41624;BME280;27319;50.306;18.926;2023-10-09T13:55:39;98220.56;;;7.47;100.00
41624;BME280;27319;50.306;18.926;2023-10-09T13:59:04;98204.94;;;7.52;100.00
41624;BME280;27319;50.306;18.926;2023-10-09T14:03:07;98213.63;;;7.54;100.00
41624;BME280;27319;50.306;18.926;2023-10-09T14:07:11;98203.84;;;7.45;100.00
41624;BME280;27319;50.306;18.926;2023-10-09T14:11:12;98191.19;;;7.47;100.00
41624;BME280;27319;50.306;18.926;2023-10-09T14:15:13;98183.25;;;7.55;100.00
41624;BME280;27319;50.306;18.926;2023-10-09T14:19:13;98172.34;;;7.66;100.00
41624;BME280;27319;50.306;18.926;2023-10-09T14:23:14;98184.94;;;7.74;100.00
41624;BME280;27319;50.306;18.926;2023-10-09T14:27:15;98176.34;;;7.62;100.00
41624;BME280;27319;50.306;18.926;2023-10-09T14:31:16;98184.41;;;7.70;100.00
41624;BME280;27319;50.306;18.926;2023-10-09T14:35:17;98203.41;;;7.67;100.00
41624;BME280;27319;50.306;18.926;2023-10-09T14:39:17;98203.88;;;7.63;100.00
41624;BME280;27319;50.306;18.926;2023-10-09T14:43:18;98210.44;;;7.68;100.00
41624;BME280;27319;50.306;18.926;2023-10-09T14:47:19;98219.16;;;7.70;100.00
41624;BME280;27319;50.306;18.926;2023-10-09T14:51:20;98221.09;;;7.51;100.00
41624;BME280;27319;50.306;18.926;2023-10-09T14:55:20;98226.38;;;7.60;100.00
41624;BME280;27319;50.306;18.926;2023-10-09T14:59:21;98229.44;;;7.65;100.00
41624;BME280;27319;50.306;18.926;2023-10-09T15:03:22;98226.03;;;7.73;100.00
41624;BME280;27319;50.306;18.926;2023-10-09T15:07:23;98222.66;;;7.71;100.00
41624;BME280;27319;50.306;18.926;2023-10-09T15:11:24;98221.50;;;7.73;100.00
41624;BME280;27319;50.306;18.926;2023-10-09T15:15:24;98235.09;;;7.80;100.00
41624;BME280;27319;50.306;18.926;2023-10-09T15:19:25;98240.59;;;7.78;100.00
41624;BME280;27319;50.306;18.926;2023-10-09T15:23:29;98250.59;;;7.76;100.00
41624;BME280;27319;50.306;18.926;2023-10-09T15:27:30;98255.81;;;7.78;100.00
41624;BME280;27319;50.306;18.926;2023-10-09T15:31:30;98257.00;;;7.83;100.00
41624;BME280;27319;50.306;18.926;2023-10-09T15:35:31;98265.16;;;7.82;100.00
41624;BME280;27319;50.306;18.926;2023-10-09T15:39:35;98258.34;;;7.70;100.00
41624;BME280;27319;50.306;18.926;2023-10-09T15:43:36;98264.47;;;7.62;100.00
41624;BME280;27319;50.306;18.926;2023-10-09T15:47:40;98254.94;;;7.60;100.00
41624;BME280;27319;50.306;18.926;2023-10-09T15:51:40;98245.44;;;7.48;100.00
41624;BME280;27319;50.306;18.926;2023-10-09T15:55:44;98243.00;;;7.54;100.00
41624;BME280;27319;50.306;18.926;2023-10-09T15:59:45;98234.63;;;7.67;100.00
41624;BME280;27319;50.306;18.926;2023-10-09T16:03:46;98225.38;;;7.61;100.00
41624;BME280;27319;50.306;18.926;2023-10-09T16:07:46;98236.72;;;7.73;100.00
41624;BME280;27319;50.306;18.926;2023-10-09T16:11:47;98242.25;;;7.79;100.00
41624;BME280;27319;50.306;18.926;2023-10-09T16:15:48;98247.84;;;7.68;100.00
41624;BME280;27319;50.306;18.926;2023-10-09T16:19:49;98241.78;;;7.66;100.00
41624;BME280;27319;50.306;18.926;2023-10-09T16:23:51;98242.59;;;7.76;100.00
41624;BME280;27319;50.306;18.926;2023-10-09T16:27:51;98253.56;;;7.73;100.00
41624;BME280;27319;50.306;18.926;2023-10-09T16:31:52;98265.50;;;7.79;100.00
41624;BME280;27319;50.306;18.926;2023-10-09T16:35:52;98288.41;;;7.81;100.00
41624;BME280;27319;50.306;18.926;2023-10-09T16:39:53;98289.63;;;7.87;100.00
41624;BME280;27319;50.306;18.926;2023-10-09T16:43:57;98305.50;;;7.88;100.00
41624;BME280;27319;50.306;18.926;2023-10-09T16:47:58;98315.06;;;7.91;100.00
41624;BME280;27319;50.306;18.926;2023-10-09T16:51:59;98304.13;;;7.84;100.00
41624;BME280;27319;50.306;18.926;2023-10-09T16:56:00;98299.22;;;7.80;100.00
41624;BME280;27319;50.306;18.926;2023-10-09T17:00:01;98315.78;;;7.83;100.00
41624;BME280;27319;50.306;18.926;2023-10-09T17:04:10;98319.31;;;7.84;100.00
41624;BME280;27319;50.306;18.926;2023-10-09T17:08:11;98321.00;;;7.85;100.00
41624;BME280;27319;50.306;18.926;2023-10-09T17:12:12;98320.16;;;7.84;100.00
41624;BME280;27319;50.306;18.926;2023-10-09T17:16:16;98344.19;;;7.84;100.00
41624;BME280;27319;50.306;18.926;2023-10-09T17:20:16;98347.31;;;7.80;100.00
41624;BME280;27319;50.306;18.926;2023-10-09T17:24:17;98344.59;;;7.89;100.00
41624;BME280;27319;50.306;18.926;2023-10-09T17:28:18;98339.84;;;7.83;100.00
41624;BME280;27319;50.306;18.926;2023-10-09T17:32:18;98346.59;;;7.87;100.00
41624;BME280;27319;50.306;18.926;2023-10-09T17:36:19;98334.41;;;7.75;100.00
41624;BME280;27319;50.306;18.926;2023-10-09T17:40:20;98345.19;;;7.83;100.00
41624;BME280;27319;50.306;18.926;2023-10-09T17:44:21;98328.94;;;7.77;100.00
41624;BME280;27319;50.306;18.926;2023-10-09T17:48:23;98330.06;;;7.74;100.00
41624;BME280;27319;50.306;18.926;2023-10-09T17:52:12;98321.59;;;7.79;100.00
41624;BME280;27319;50.306;18.926;2023-10-09T17:55:12;98312.03;;;7.76;100.00
41624;BME280;27319;50.306;18.926;2023-10-09T17:58:14;98317.38;;;7.76;100.00
41624;BME280;27319;50.306;18.926;2023-10-09T18:01:15;98319.53;;;7.73;100.00
41624;BME280;27319;50.306;18.926;2023-10-09T18:04:36;98310.44;;;7.83;100.00
41624;BME280;27319;50.306;18.926;2023-10-09T18:08:37;98313.72;;;7.77;100.00
41624;BME280;27319;50.306;18.926;2023-10-09T18:12:38;98318.19;;;7.86;100.00
41624;BME280;27319;50.306;18.926;2023-10-09T18:16:38;98338.03;;;7.84;100.00
41624;BME280;27319;50.306;18.926;2023-10-09T18:20:42;98334.22;;;7.86;100.00
41624;BME280;27319;50.306;18.926;2023-10-09T18:24:43;98337.56;;;7.88;100.00
41624;BME280;27319;50.306;18.926;2023-10-09T18:28:43;98340.44;;;7.77;100.00
41624;BME280;27319;50.306;18.926;2023-10-09T18:32:44;98341.38;;;7.86;100.00
41624;BME280;27319;50.306;18.926;2023-10-09T18:36:45;98369.16;;;7.75;100.00
41624;BME280;27319;50.306;18.926;2023-10-09T18:40:46;98374.19;;;7.78;100.00
41624;BME280;27319;50.306;18.926;2023-10-09T18:44:47;98376.31;;;7.75;100.00
41624;BME280;27319;50.306;18.926;2023-10-09T18:48:48;98370.31;;;7.63;100.00
41624;BME280;27319;50.306;18.926;2023-10-09T18:52:48;98375.34;;;7.66;100.00
41624;BME280;27319;50.306;18.926;2023-10-09T18:56:49;98380.13;;;7.72;100.00
41624;BME280;27319;50.306;18.926;2023-10-09T19:00:50;98389.81;;;7.73;100.00
41624;BME280;27319;50.306;18.926;2023-10-09T19:04:53;98379.59;;;7.59;100.00
41624;BME280;27319;50.306;18.926;2023-10-09T19:08:54;98371.16;;;7.64;100.00
41624;BME280;27319;50.306;18.926;2023-10-09T19:12:55;98376.06;;;7.68;100.00
41624;BME280;27319;50.306;18.926;2023-10-09T19:16:56;98360.22;;;7.57;100.00
41624;BME280;27319;50.306;18.926;2023-10-09T19:20:56;98366.66;;;7.64;100.00
41624;BME280;27319;50.306;18.926;2023-10-09T19:24:57;98369.44;;;7.72;100.00
41624;BME280;27319;50.306;18.926;2023-10-09T19:28:58;98372.03;;;7.55;100.00
41624;BME280;27319;50.306;18.926;2023-10-09T19:32:59;98377.34;;;7.64;100.00
41624;BME280;27319;50.306;18.926;2023-10-09T19:37:00;98378.88;;;7.67;100.00
41624;BME280;27319;50.306;18.926;2023-10-09T19:41:01;98368.66;;;7.62;100.00
41624;BME280;27319;50.306;18.926;2023-10-09T19:45:05;98382.69;;;7.64;100.00
41624;BME280;27319;50.306;18.926;2023-10-09T19:49:05;98374.75;;;7.72;100.00
41624;BME280;27319;50.306;18.926;2023-10-09T19:53:06;98362.41;;;7.71;100.00
41624;BME280;27319;50.306;18.926;2023-10-09T19:57:07;98379.69;;;7.67;100.00
41624;BME280;27319;50.306;18.926;2023-10-09T20:01:08;98382.69;;;7.64;100.00
41624;BME280;27319;50.306;18.926;2023-10-09T20:05:09;98379.88;;;7.66;100.00